createdAt,value
2023-12-27T00:01:02.276Z,99898.04
2023-12-27T00:03:51.351Z,99905.11
2023-12-27T00:06:24.717Z,99912.20
2023-12-27T00:08:58.948Z,99912.90
2023-12-27T00:11:26.921Z,99909.01
2023-12-27T00:13:54.631Z,99910.02
2023-12-27T00:16:22.303Z,99911.40
2023-12-27T00:18:50.319Z,99911.56
2023-12-27T00:21:18.506Z,99923.73
2023-12-27T00:23:46.199Z,99930.83
2023-12-27T00:26:14.334Z,99931.33
2023-12-27T00:28:42.317Z,99938.09
2023-12-27T00:31:10.231Z,99944.86
2023-12-27T00:33:38.503Z,99942.61
2023-12-27T00:36:07.961Z,99954.23
2023-12-27T00:38:36.693Z,99962.64
2023-12-27T00:41:08.314Z,99970.04
2023-12-27T00:43:36.229Z,99970.82
2023-12-27T00:46:07.268Z,99974.52
2023-12-27T00:48:35.131Z,99985.63
2023-12-27T00:51:03.803Z,99993.17
2023-12-27T00:53:31.742Z,99993.47
2023-12-27T00:55:59.699Z,100002.74
2023-12-27T00:58:27.410Z,100006.79
2023-12-27T01:00:55.135Z,100010.66
2023-12-27T01:03:23.414Z,100019.60
2023-12-27T01:05:53.377Z,100020.74
2023-12-27T01:08:21.222Z,100022.05
2023-12-27T01:10:48.881Z,100025.90
2023-12-27T01:13:18.704Z,100032.66
2023-12-27T01:15:46.383Z,100040.09
2023-12-27T01:18:14.289Z,100038.39
2023-12-27T01:20:42.347Z,100042.92
2023-12-27T01:23:12.195Z,100047.48
2023-12-27T01:25:39.869Z,100056.45
2023-12-27T01:28:07.760Z,100060.59
2023-12-27T01:30:36.700Z,100066.95
2023-12-27T01:33:04.676Z,100072.48
2023-12-27T01:35:32.579Z,100072.39
2023-12-27T01:38:00.512Z,100076.23
2023-12-27T01:40:28.258Z,100068.27
2023-12-27T01:42:56.157Z,100078.84
2023-12-27T01:45:24.112Z,100086.39
2023-12-27T01:47:52.078Z,100082.59
2023-12-27T01:50:21.407Z,100090.85
2023-12-27T01:52:49.194Z,100093.67
2023-12-27T01:55:17.205Z,100099.53
2023-12-27T01:57:45.885Z,100101.02
2023-12-27T02:00:15.688Z,100106.58
2023-12-27T02:02:43.638Z,100115.34
2023-12-27T02:05:11.731Z,100116.81
2023-12-27T02:07:41.768Z,100123.05
2023-12-27T02:10:10.976Z,100112.74
2023-12-27T02:12:38.697Z,100119.40
2023-12-27T02:15:07.300Z,100123.75
2023-12-27T02:17:35.527Z,100124.70
2023-12-27T02:20:04.454Z,100131.17
2023-12-27T02:22:34.788Z,100130.95
2023-12-27T02:25:03.257Z,100137.14
2023-12-27T02:27:33.218Z,100136.23
2023-12-27T02:30:01.165Z,100139.71
2023-12-27T02:32:28.905Z,100140.33
2023-12-27T02:34:56.912Z,100143.99
2023-12-27T02:37:24.773Z,100142.38
2023-12-27T02:39:52.454Z,100148.73
2023-12-27T02:42:20.517Z,100150.13
2023-12-27T02:44:48.227Z,100150.55
2023-12-27T02:47:18.692Z,100163.55
2023-12-27T02:49:46.550Z,100172.05
2023-12-27T02:52:14.334Z,100175.98
2023-12-27T02:54:42.036Z,100179.41
2023-12-27T02:57:09.750Z,100174.55
2023-12-27T02:59:37.465Z,100182.14
2023-12-27T03:02:05.195Z,100187.27
2023-12-27T03:04:34.079Z,100191.38
2023-12-27T03:07:02.078Z,100183.66
2023-12-27T03:09:29.947Z,100186.16
2023-12-27T03:11:58.084Z,100189.59
2023-12-27T03:14:26.434Z,100186.64
2023-12-27T03:16:54.109Z,100184.54
2023-12-27T03:19:21.935Z,100180.45
2023-12-27T03:21:49.650Z,100186.73
2023-12-27T03:24:17.824Z,100186.63
2023-12-27T03:26:45.869Z,100192.28
2023-12-27T03:29:13.575Z,100198.03
2023-12-27T03:31:43.606Z,100199.02
2023-12-27T03:34:11.360Z,100199.13
2023-12-27T03:36:39.209Z,100204.52
2023-12-27T03:39:06.918Z,100203.41
2023-12-27T03:41:34.634Z,100202.17
2023-12-27T03:44:02.365Z,100214.61
2023-12-27T03:46:30.733Z,100222.81
2023-12-27T03:48:58.556Z,100218.05
2023-12-27T03:51:26.430Z,100227.61
2023-12-27T03:53:54.339Z,100224.14
2023-12-27T03:56:21.994Z,100223.98
2023-12-27T03:58:49.757Z,100221.31
2023-12-27T04:01:22.334Z,100223.40
2023-12-27T04:03:50.339Z,100223.23
2023-12-27T04:06:20.048Z,100224.36
2023-12-27T04:08:48.448Z,100226.61
2023-12-27T04:11:16.399Z,100225.27
2023-12-27T04:13:44.455Z,100229.96
2023-12-27T04:16:12.393Z,100232.58
2023-12-27T04:18:40.454Z,100240.48
2023-12-27T04:21:08.550Z,100244.66
2023-12-27T04:23:36.296Z,100239.79
2023-12-27T04:26:06.279Z,100243.83
2023-12-27T04:28:33.997Z,100255.04
2023-12-27T04:31:01.772Z,100256.89
2023-12-27T04:33:29.607Z,100249.98
2023-12-27T04:35:59.485Z,100258.92
2023-12-27T04:38:27.905Z,100273.27
2023-12-27T04:40:56.408Z,100274.44
2023-12-27T04:43:24.721Z,100280.02
2023-12-27T04:45:52.425Z,100283.91
2023-12-27T04:48:20.182Z,100283.08
2023-12-27T04:50:47.981Z,100293.09
2023-12-27T04:53:16.022Z,100293.17
2023-12-27T04:55:43.763Z,100298.49
2023-12-27T04:58:11.550Z,100301.87
2023-12-27T05:00:39.896Z,100307.48
2023-12-27T05:03:10.371Z,100311.77
2023-12-27T05:05:38.825Z,100317.88
2023-12-27T05:08:06.909Z,100319.47
2023-12-27T05:10:34.622Z,100323.27
2023-12-27T05:13:02.319Z,100321.61
2023-12-27T05:15:30.061Z,100326.58
2023-12-27T05:17:58.158Z,100335.11
2023-12-27T05:20:26.133Z,100341.61
2023-12-27T05:22:53.789Z,100347.81
2023-12-27T05:25:21.589Z,100352.40
2023-12-27T05:27:49.264Z,100359.74
2023-12-27T05:30:17.699Z,100365.55
2023-12-27T05:32:46.111Z,100371.83
2023-12-27T05:35:13.912Z,100374.54
2023-12-27T05:37:41.648Z,100372.82
2023-12-27T05:40:10.364Z,100374.39
2023-12-27T05:42:38.162Z,100377.78
2023-12-27T05:45:06.860Z,100374.31
2023-12-27T05:47:34.658Z,100385.85
2023-12-27T05:50:02.617Z,100386.80
2023-12-27T05:52:30.320Z,100390.80
2023-12-27T05:54:58.039Z,100398.75
2023-12-27T05:57:25.720Z,100405.52
2023-12-27T05:59:53.493Z,100411.44
2023-12-27T06:02:21.153Z,100414.80
2023-12-27T06:04:48.942Z,100416.70
2023-12-27T06:07:16.789Z,100424.10
2023-12-27T06:09:44.573Z,100427.64
2023-12-27T06:12:12.260Z,100431.39
2023-12-27T06:14:40.356Z,100436.25
2023-12-27T06:17:08.149Z,100437.25
2023-12-27T06:19:36.924Z,100444.56
2023-12-27T06:22:04.928Z,100442.49
2023-12-27T06:24:32.658Z,100445.44
2023-12-27T06:27:00.491Z,100455.23
2023-12-27T06:29:28.652Z,100460.02
2023-12-27T06:31:56.389Z,100473.31
2023-12-27T06:34:24.163Z,100480.01
2023-12-27T06:36:52.700Z,100478.64
2023-12-27T06:39:20.451Z,100487.48
2023-12-27T06:41:48.775Z,100492.93
2023-12-27T06:44:16.476Z,100495.80
2023-12-27T06:46:44.256Z,100506.88
2023-12-27T06:49:12.042Z,100503.89
2023-12-27T06:51:39.972Z,100515.59
2023-12-27T06:54:07.776Z,100509.21
2023-12-27T06:56:37.732Z,100515.98
2023-12-27T06:59:05.616Z,100522.53
2023-12-27T07:01:33.317Z,100519.04
2023-12-27T07:04:01.065Z,100523.96
2023-12-27T07:06:29.080Z,100528.11
2023-12-27T07:08:56.877Z,100532.89
2023-12-27T07:11:26.234Z,100528.93
2023-12-27T07:13:54.205Z,100536.23
2023-12-27T07:16:22.050Z,100546.09
2023-12-27T07:18:49.856Z,100555.22
2023-12-27T07:21:17.692Z,100562.02
2023-12-27T07:23:45.730Z,100574.60
2023-12-27T07:26:14.141Z,100580.19
2023-12-27T07:28:42.183Z,100583.10
2023-12-27T07:31:09.971Z,100590.99
2023-12-27T07:33:41.312Z,100592.20
2023-12-27T07:36:09.783Z,100599.54
2023-12-27T07:38:37.571Z,100607.20
2023-12-27T07:41:08.870Z,100612.33
2023-12-27T07:43:36.951Z,100626.90
2023-12-27T07:46:04.825Z,100628.36
2023-12-27T07:48:34.201Z,100628.92
2023-12-27T07:51:02.149Z,100630.92
2023-12-27T07:53:30.332Z,100639.23
2023-12-27T07:55:57.984Z,100646.72
2023-12-27T07:58:25.655Z,100646.95
2023-12-27T08:00:54.436Z,100655.05
2023-12-27T08:03:22.419Z,100656.27
2023-12-27T08:05:50.709Z,100657.71
2023-12-27T08:08:18.541Z,100659.06
2023-12-27T08:10:46.226Z,100665.48
2023-12-27T08:13:13.896Z,100676.54
2023-12-27T08:15:41.845Z,100681.65
2023-12-27T08:18:09.771Z,100685.61
2023-12-27T08:20:38.305Z,100680.61
2023-12-27T08:23:07.541Z,100693.84
2023-12-27T08:25:36.208Z,100700.88
2023-12-27T08:28:06.340Z,100708.17
2023-12-27T08:30:34.112Z,100710.73
2023-12-27T08:33:02.451Z,100717.48
2023-12-27T08:35:30.323Z,100721.42
2023-12-27T08:37:58.286Z,100722.61
2023-12-27T08:40:26.432Z,100726.89
2023-12-27T08:42:55.156Z,100731.74
2023-12-27T08:45:22.865Z,100740.00
2023-12-27T08:47:53.039Z,100745.48
2023-12-27T08:50:21.239Z,100743.86
2023-12-27T08:52:50.982Z,100746.23
2023-12-27T08:55:18.686Z,100751.82
2023-12-27T08:57:47.216Z,100763.96
2023-12-27T09:00:15.639Z,100772.19
2023-12-27T09:02:43.433Z,100772.79
2023-12-27T09:05:11.135Z,100772.88
2023-12-27T09:07:39.111Z,100773.48
2023-12-27T09:10:07.955Z,100774.48
2023-12-27T09:12:35.797Z,100775.66
2023-12-27T09:15:04.429Z,100779.09
2023-12-27T09:17:32.229Z,100781.81
2023-12-27T09:20:00.000Z,100774.59
2023-12-27T09:22:29.302Z,100774.40
2023-12-27T09:24:57.128Z,100772.27
2023-12-27T09:27:26.694Z,100776.42
2023-12-27T09:29:54.804Z,100788.70
2023-12-27T09:32:22.775Z,100780.52
2023-12-27T09:34:50.762Z,100781.09
2023-12-27T09:38:19.679Z,100784.41
2023-12-27T09:41:48.281Z,100791.29
2023-12-27T09:45:16.859Z,100807.15
2023-12-27T09:48:45.913Z,100801.70
2023-12-27T09:52:14.634Z,100800.36
2023-12-27T09:55:43.398Z,100803.17
2023-12-27T09:59:12.935Z,100797.35
2023-12-27T10:02:42.040Z,100797.73
2023-12-27T10:06:25.912Z,100803.40
2023-12-27T10:09:55.874Z,100805.69
2023-12-27T10:13:26.485Z,100816.05
2023-12-27T10:16:55.082Z,100819.67
2023-12-27T10:20:39.020Z,100820.30
2023-12-27T10:24:07.635Z,100818.48
2023-12-27T10:27:36.265Z,100817.83
2023-12-27T10:31:05.680Z,100815.02
2023-12-27T10:34:40.416Z,100814.15
2023-12-27T10:38:09.454Z,100814.33
2023-12-27T10:41:38.387Z,100818.40
2023-12-27T10:45:09.854Z,100821.41
2023-12-27T10:48:38.583Z,100825.55
2023-12-27T10:52:07.365Z,100831.48
2023-12-27T10:55:35.926Z,100831.80
2023-12-27T10:59:04.584Z,100829.06
2023-12-27T11:02:36.328Z,100832.84
2023-12-27T11:06:05.261Z,100836.84
2023-12-27T11:09:34.326Z,100842.55
2023-12-27T11:13:02.865Z,100848.83
2023-12-27T11:16:31.592Z,100855.70
2023-12-27T11:20:00.328Z,100855.96
2023-12-27T11:23:29.106Z,100853.29
2023-12-27T11:27:00.733Z,100858.90
2023-12-27T11:30:35.962Z,100864.55
2023-12-27T11:34:05.106Z,100865.42
2023-12-27T11:37:13.652Z,100855.09
2023-12-27T11:40:42.733Z,100853.55
2023-12-27T11:44:09.735Z,100864.36
2023-12-27T11:47:38.529Z,100865.45
2023-12-27T11:51:13.058Z,100868.95
2023-12-27T11:54:41.863Z,100871.93
2023-12-27T11:58:10.645Z,100877.92
2023-12-27T12:01:39.429Z,100882.15
2023-12-27T12:05:26.517Z,100881.72
2023-12-27T12:09:02.541Z,100883.59
2023-12-27T12:12:31.385Z,100882.23
2023-12-27T12:16:03.023Z,100888.32
2023-12-27T12:19:32.154Z,100891.30
2023-12-27T12:23:02.938Z,100889.13
2023-12-27T12:26:31.738Z,100892.70
2023-12-27T12:30:00.426Z,100894.02
2023-12-27T12:33:29.448Z,100900.21
2023-12-27T12:36:58.312Z,100900.77
2023-12-27T12:40:27.135Z,100903.20
2023-12-27T12:43:55.712Z,100906.58
2023-12-27T12:47:24.333Z,100910.33
2023-12-27T12:50:53.243Z,100910.27
2023-12-27T12:54:22.112Z,100909.23
2023-12-27T12:57:50.703Z,100901.97
2023-12-27T13:01:14.959Z,100898.48
2023-12-27T13:04:42.863Z,100892.45
2023-12-27T13:07:51.214Z,100896.94
2023-12-27T13:11:20.268Z,100896.31
2023-12-27T13:14:48.963Z,100901.48
2023-12-27T13:18:17.713Z,100899.23
2023-12-27T13:21:47.241Z,100902.55
2023-12-27T13:25:16.437Z,100899.27
2023-12-27T13:28:45.168Z,100910.17
2023-12-27T13:32:14.110Z,100908.52
2023-12-27T13:35:42.966Z,100910.88
2023-12-27T13:39:11.583Z,100912.45
2023-12-27T13:42:40.537Z,100910.67
2023-12-27T13:46:09.839Z,100913.40
2023-12-27T13:49:38.632Z,100918.48
2023-12-27T13:53:07.736Z,100923.45
2023-12-27T13:56:26.583Z,100927.52
2023-12-27T13:59:55.422Z,100932.35
2023-12-27T14:03:24.044Z,100936.60
2023-12-27T14:06:51.431Z,100936.80
2023-12-27T14:10:21.162Z,100937.60
2023-12-27T14:13:49.793Z,100936.61
2023-12-27T14:17:18.339Z,100941.33
2023-12-27T14:20:48.165Z,100942.72
2023-12-27T14:24:16.840Z,100944.36
2023-12-27T14:27:45.840Z,100946.66
2023-12-27T14:31:15.309Z,100945.41
2023-12-27T14:34:44.183Z,100945.58
2023-12-27T14:38:12.955Z,100952.35
2023-12-27T14:41:41.477Z,100948.17
2023-12-27T14:45:10.164Z,100945.69
2023-12-27T14:48:28.692Z,100942.94
2023-12-27T14:51:57.716Z,100943.98
2023-12-27T14:55:26.579Z,100949.15
2023-12-27T14:58:55.280Z,100948.64
2023-12-27T15:02:24.214Z,100956.56
2023-12-27T15:05:53.091Z,100958.84
2023-12-27T15:09:13.589Z,100961.17
2023-12-27T15:12:42.555Z,100965.51
2023-12-27T15:16:05.493Z,100965.48
2023-12-27T15:19:23.696Z,100970.72
2023-12-27T15:22:52.650Z,100974.23
2023-12-27T15:26:10.154Z,100981.95
2023-12-27T15:29:39.285Z,100990.58
2023-12-27T15:33:09.809Z,100996.66
2023-12-27T15:36:38.769Z,101003.63
2023-12-27T15:40:07.693Z,101001.67
2023-12-27T15:43:36.535Z,101006.83
2023-12-27T15:47:06.892Z,101019.73
2023-12-27T15:50:26.597Z,101023.64
2023-12-27T15:53:55.407Z,101028.55
2023-12-27T15:57:30.179Z,101033.29
2023-12-27T16:00:59.006Z,101037.14
2023-12-27T16:04:27.902Z,101037.25
2023-12-27T16:07:56.892Z,101038.39
2023-12-27T16:11:25.844Z,101031.06
2023-12-27T16:14:47.023Z,101025.42
2023-12-27T16:18:05.805Z,101031.93
2023-12-27T16:21:35.257Z,101024.66
2023-12-27T16:25:04.259Z,101025.23
2023-12-27T16:28:34.774Z,101031.89
2023-12-27T16:32:03.576Z,101030.94
2023-12-27T16:35:31.245Z,101030.54
2023-12-27T16:38:40.847Z,101032.52
2023-12-27T16:42:10.351Z,101036.84
2023-12-27T16:45:39.265Z,101040.14
2023-12-27T16:49:08.942Z,101044.21
2023-12-27T16:52:37.758Z,101054.30
2023-12-27T16:55:59.619Z,101055.83
2023-12-27T16:59:28.305Z,101063.67
2023-12-27T17:02:58.091Z,101063.49
2023-12-27T17:06:27.339Z,101065.15
2023-12-27T17:09:55.910Z,101064.33
2023-12-27T17:13:24.497Z,101064.52
2023-12-27T17:16:53.083Z,101060.21
2023-12-27T17:20:21.860Z,101055.39
2023-12-27T17:23:53.254Z,101053.44
2023-12-27T17:27:21.978Z,101059.48
2023-12-27T17:30:51.125Z,101053.82
2023-12-27T17:34:20.575Z,101048.34
2023-12-27T17:37:52.401Z,101050.48
2023-12-27T17:41:21.257Z,101053.30
2023-12-27T17:44:49.956Z,101053.52
2023-12-27T17:48:18.860Z,101059.65
2023-12-27T17:51:50.498Z,101056.49
2023-12-27T17:55:19.242Z,101048.69
2023-12-27T17:58:47.807Z,101045.38
2023-12-27T18:02:16.713Z,101036.83
2023-12-27T18:05:45.644Z,101036.90
2023-12-27T18:09:14.598Z,101035.54
2023-12-27T18:12:43.431Z,101036.52
2023-12-27T18:16:12.333Z,101046.48
2023-12-27T18:19:41.440Z,101046.69
2023-12-27T18:23:10.547Z,101040.48
2023-12-27T18:26:42.276Z,101043.80
2023-12-27T18:30:02.147Z,101037.13
2023-12-27T18:33:30.830Z,101034.86
2023-12-27T18:37:02.099Z,101034.70
2023-12-27T18:40:30.888Z,101041.86
2023-12-27T18:43:59.484Z,101041.48
2023-12-27T18:47:28.799Z,101046.48
2023-12-27T18:50:57.587Z,101046.38
2023-12-27T18:54:26.486Z,101051.03
2023-12-27T18:57:58.085Z,101052.23
2023-12-27T19:01:26.966Z,101058.23
2023-12-27T19:04:55.434Z,101060.58
2023-12-27T19:08:14.198Z,101059.22
2023-12-27T19:11:42.815Z,101046.74
2023-12-27T19:15:11.972Z,101051.73
2023-12-27T19:18:41.158Z,101046.70
2023-12-27T19:22:10.097Z,101045.45
2023-12-27T19:25:21.915Z,101045.59
2023-12-27T19:28:50.653Z,101048.59
2023-12-27T19:32:19.237Z,101054.00
2023-12-27T19:35:50.842Z,101046.91
2023-12-27T19:39:19.568Z,101047.55
2023-12-27T19:42:48.524Z,101054.57
2023-12-27T19:46:17.356Z,101068.77
2023-12-27T19:49:46.353Z,101068.34
2023-12-27T19:53:16.305Z,101059.34
2023-12-27T19:56:45.448Z,101050.97
2023-12-27T20:00:14.283Z,101046.63
2023-12-27T20:03:43.023Z,101048.61
2023-12-27T20:07:11.586Z,101043.44
2023-12-27T20:10:40.478Z,101050.95
2023-12-27T20:14:09.042Z,101063.16
2023-12-27T20:17:30.782Z,101063.11
2023-12-27T20:20:39.198Z,101057.86
2023-12-27T20:24:07.870Z,101066.41
2023-12-27T20:27:36.445Z,101058.81
2023-12-27T20:31:05.735Z,101055.20
2023-12-27T20:34:16.941Z,101059.02
2023-12-27T20:37:45.913Z,101060.57
2023-12-27T20:40:55.915Z,101061.20
2023-12-27T20:44:24.511Z,101058.46
2023-12-27T20:47:43.115Z,101052.86
2023-12-27T20:51:04.957Z,101042.52
2023-12-27T20:54:34.258Z,101038.27
2023-12-27T20:57:42.946Z,101038.71
2023-12-27T21:00:59.115Z,101037.77
2023-12-27T21:04:28.831Z,101041.86
2023-12-27T21:07:42.865Z,101030.80
2023-12-27T21:11:11.591Z,101028.30
2023-12-27T21:14:38.942Z,101021.52
2023-12-27T21:18:00.738Z,101011.31
2023-12-27T21:21:28.406Z,101009.04
2023-12-27T21:24:57.392Z,101008.20
2023-12-27T21:28:25.984Z,101006.23
2023-12-27T21:31:42.850Z,101000.50
2023-12-27T21:35:10.088Z,100993.42
2023-12-27T21:38:38.796Z,100992.52
2023-12-27T21:42:07.407Z,100988.78
2023-12-27T21:45:38.933Z,100990.09
2023-12-27T21:49:08.024Z,100987.77
2023-12-27T21:52:30.426Z,100984.94
2023-12-27T21:56:02.092Z,100990.84
2023-12-27T21:59:21.373Z,100983.04
2023-12-27T22:02:42.716Z,100982.69
2023-12-27T22:05:48.295Z,100982.00
2023-12-27T22:08:58.944Z,100984.34
2023-12-27T22:12:27.560Z,100986.12
2023-12-27T22:16:00.801Z,100978.40
2023-12-27T22:19:29.321Z,100976.05
2023-12-27T22:22:49.693Z,100978.02
2023-12-27T22:26:18.510Z,100978.05
2023-12-27T22:29:47.063Z,100975.20
2023-12-27T22:33:16.222Z,100969.45
2023-12-27T22:36:44.524Z,100960.15
2023-12-27T22:40:13.093Z,100963.01
2023-12-27T22:43:41.819Z,100958.27
2023-12-27T22:47:10.354Z,100944.23
2023-12-27T22:50:38.985Z,100932.74
2023-12-27T22:54:07.935Z,100936.95
2023-12-27T22:57:36.806Z,100912.96
2023-12-27T23:01:06.992Z,100894.87
2023-12-27T23:04:35.875Z,100894.75
2023-12-27T23:08:04.665Z,100896.89
2023-12-27T23:11:33.434Z,100910.80
2023-12-27T23:15:02.307Z,100921.98
2023-12-27T23:18:30.744Z,100936.77
2023-12-27T23:21:59.933Z,100904.21
2023-12-27T23:25:27.337Z,100873.69
2023-12-27T23:28:49.803Z,100887.49
2023-12-27T23:39:04.272Z,100887.71
2023-12-27T23:42:31.916Z,100876.11
2023-12-27T23:46:00.910Z,100876.70
2023-12-27T23:49:22.621Z,100868.09
2023-12-27T23:52:30.917Z,100856.63
2023-12-27T23:55:39.214Z,100856.11
2023-12-27T23:59:07.864Z,100852.51
